Flight Track Log - Related Links

Times and Time Zones

All times are in EDT time to prevent confusion due to time zone crossing. See the SWA2697 flight status page for this flight to view local times or setup timezone preferences in your user account.

Time Position Orientation Groundspeed Altitude Reporting Facility
EDT Latitude Longitude Course Direction KTS MPH feet Rate Location/Type
Mon 07:12:25 AM 41.7667 -87.8000 251° West 162 186 2,600  Level Chicago TRACON
Mon 07:13:25 AM 41.7500 -87.8667 251° West 202 232 3,700 651 Climbing Chicago TRACON
Mon 07:14:34 AM 41.7389 -87.9489 260° West 225 259 4,000 415 Climbing Chicago Center
Mon 07:15:35 AM 41.7392 -88.0444 270° West 248 285 4,600 934 Climbing Chicago Center
Mon 07:16:36 AM 41.7381 -88.1589 269° West 258 297 5,900 689 Climbing Chicago Center
Mon 07:17:37 AM 41.7356 -88.2531 268° West 257 296 6,000 689 Climbing Chicago Center
Mon 07:18:38 AM 41.7536 -88.3417 285° West 258 297 7,300 2,311 Climbing Chicago Center
Mon 07:19:39 AM 41.7806 -88.4342 291° West 276 318 10,700 2,803 Climbing Chicago Center
Mon 07:20:40 AM 41.7800 -88.5408 270° West 290 334 13,000 2,066 Climbing Chicago Center
Mon 07:21:41 AM 41.7803 -88.6697 270° West 343 395 14,900 2,361 Climbing Chicago Center
Mon 07:22:42 AM 41.7775 -88.8083 269° West 373 429 17,800 2,683 Climbing Chicago Center
Mon 07:23:44 AM 41.7744 -88.9500 268° West 381 438 20,400 2,537 Climbing Chicago Center
Mon 07:24:45 AM 41.7706 -89.1250 268° West 394 453 23,000 2,410 Climbing Chicago Center
Mon 07:25:46 AM 41.7661 -89.2783 268° West 410 472 25,300 2,213 Climbing Chicago Center
Mon 07:26:47 AM 41.7656 -89.4317 270° West 414 476 27,500 2,016 Climbing Chicago Center
Mon 07:27:48 AM 41.7650 -89.5678 270° West 408 470 29,400 1,918 Climbing Chicago Center
Mon 07:28:49 AM 41.7639 -89.7189 269° West 408 470 31,400 1,707 Climbing Chicago Center
Mon 07:29:51 AM 41.7628 -89.9008 270° West 409 471 32,900 1,366 Climbing Chicago Center
Mon 07:30:52 AM 41.7622 -90.0556 270° West 415 478 34,200 1,525 Climbing Chicago Center
Mon 07:31:53 AM 41.7594 -90.2117 269° West 419 482 36,000 1,561 Climbing Chicago Center
Mon 07:32:55 AM 41.7564 -90.3658 269° West 418 481 37,400 976 Climbing Chicago Center
Mon 07:33:56 AM 41.7553 -90.5136 269° West 407 468 38,000 293 Climbing Chicago Center
Mon 07:34:58 AM 41.7525 -90.6619 269° West 402 463 38,000  Level Chicago Center
Mon 07:35:59 AM 41.7506 -90.8094 269° West 399 459 38,000  Level Chicago Center
Mon 07:37:01 AM 41.7483 -90.9600 269° West 404 465 38,000  Level Chicago Center
Mon 07:38:02 AM 41.7447 -91.1392 269° West 404 465 38,000  Level Chicago Center
Mon 07:39:04 AM 41.7411 -91.2917 268° West 409 471 38,000  Level Chicago Center
Mon 07:40:05 AM 41.7386 -91.4444 269° West 412 474 38,000  Level Chicago Center
Mon 07:41:07 AM 41.7353 -91.5967 268° West 411 473 38,000  Level Chicago Center
Mon 07:42:08 AM 41.7322 -91.7469 268° West 408 470 38,000  Level Chicago Center
Mon 07:43:10 AM 41.7281 -91.8981 268° West 408 470 38,000  Level Chicago Center
Mon 07:44:11 AM 41.7236 -92.0461 268° West 403 464 38,000  Level Chicago Center
Mon 07:45:13 AM 41.7186 -92.2261 268° West 406 467 38,000  Level Chicago Center
Mon 07:46:15 AM 41.7139 -92.3739 268° West 403 464 38,000  Level Chicago Center
Mon 07:47:16 AM 41.7103 -92.5214 268° West 400 460 38,000  Level Chicago Center
Mon 07:48:18 AM 41.7047 -92.6681 267° West 398 458 38,000  Level Chicago Center
Mon 07:48:34 AM 41.7042 -92.7000 269° West 400 460 38,000  Level Minneapolis Center
Mon 07:49:35 AM 41.6969 -92.8747 267° West 398 458 38,000  Level Minneapolis Center
Mon 07:50:36 AM 41.6919 -93.0236 267° West 402 463 38,000  Level Minneapolis Center
Mon 07:51:37 AM 41.6869 -93.1683 267° West 399 459 38,000  Level Minneapolis Center
Mon 07:52:38 AM 41.6806 -93.3158 267° West 399 459 38,000  Level Minneapolis Center
Mon 07:53:38 AM 41.6747 -93.4636 267° West 402 463 38,000  Level Minneapolis Center
Mon 07:54:39 AM 41.6706 -93.6081 268° West 396 456 38,000  Level Minneapolis Center
Mon 07:55:40 AM 41.6642 -93.7556 267° West 399 459 38,000  Level Minneapolis Center
Mon 07:56:41 AM 41.6575 -93.9022 267° West 400 460 38,000  Level Minneapolis Center
Mon 07:57:42 AM 41.6514 -94.0492 267° West 400 460 38,000  Level Minneapolis Center
Mon 07:58:43 AM 41.6433 -94.2244 267° West 399 459 38,000  Level Minneapolis Center
Mon 07:59:44 AM 41.6369 -94.3553 266° West 404 465 38,000  Level Minneapolis Center
Mon 08:00:47 AM 41.6275 -94.5344 266° West 404 465 38,000  Level Minneapolis Center
Mon 08:01:48 AM 41.6203 -94.6825 266° West 403 464 38,000  Level Minneapolis Center
Mon 08:02:49 AM 41.6128 -94.8308 266° West 401 461 38,000  Level Minneapolis Center
Mon 08:03:50 AM 41.6064 -94.9772 267° West 397 457 38,000  Level Minneapolis Center
Mon 08:04:51 AM 41.5989 -95.1231 266° West 394 453 38,000  Level Minneapolis Center
Mon 08:05:52 AM 41.5894 -95.2681 265° West 393 452 38,000  Level Minneapolis Center
Mon 08:06:53 AM 41.5819 -95.4125 266° West 391 450 38,000  Level Minneapolis Center
Mon 08:07:54 AM 41.5725 -95.5561 265° West 390 449 38,000  Level Minneapolis Center
Mon 08:08:55 AM 41.5650 -95.7094 266° West 391 450 38,000  Level Minneapolis Center
Mon 08:09:56 AM 41.5553 -95.8544 265° West 392 451 38,000  Level Minneapolis Center
Mon 08:10:57 AM 41.5464 -95.9986 265° West 391 450 38,000  Level Minneapolis Center
Mon 08:11:58 AM 41.5378 -96.1425 265° West 389 448 38,000  Level Minneapolis Center
Mon 08:12:59 AM 41.5281 -96.2867 265° West 390 449 38,000  Level Minneapolis Center
Mon 08:14:00 AM 41.5189 -96.4414 266° West 390 449 38,000  Level Minneapolis Center
Mon 08:15:01 AM 41.5086 -96.5864 265° West 394 453 38,000  Level Minneapolis Center
Mon 08:16:02 AM 41.4978 -96.7325 264° West 396 456 38,000  Level Minneapolis Center
Mon 08:17:04 AM 41.4872 -96.8781 265° West 396 456 38,000  Level Minneapolis Center
Mon 08:18:05 AM 41.4783 -97.0231 265° West 394 453 38,000  Level Minneapolis Center
Mon 08:19:06 AM 41.4678 -97.1678 264° West 394 453 38,000  Level Minneapolis Center
Mon 08:20:07 AM 41.4542 -97.3408 264° West 393 452 38,000  Level Minneapolis Center
Mon 08:21:08 AM 41.4439 -97.4861 265° West 394 453 38,000  Level Minneapolis Center
Mon 08:22:10 AM 41.4331 -97.6308 264° West 394 453 38,000  Level Minneapolis Center
Mon 08:23:11 AM 41.4219 -97.7753 264° West 393 452 38,000  Level Minneapolis Center
Mon 08:24:12 AM 41.4108 -97.9186 264° West 390 449 38,000  Level Minneapolis Center
Mon 08:25:13 AM 41.3972 -98.0625 263° West 391 450 38,000  Level Minneapolis Center
Mon 08:26:15 AM 41.3706 -98.1964 255° West 394 453 38,000  Level Minneapolis Center
Mon 08:27:16 AM 41.3375 -98.3681 256° West 398 458 38,000  Level Minneapolis Center
Mon 08:28:17 AM 41.3156 -98.4883 256° West 397 457 38,000  Level Minneapolis Center
Mon 08:29:19 AM 41.2883 -98.6308 256° West 397 457 38,000  Level Minneapolis Center
Mon 08:30:20 AM 41.2544 -98.8044 255° West 403 464 38,000  Level Minneapolis Center
Mon 08:31:33 AM 41.2203 -98.9769 255° West 403 464 38,000  Level Minneapolis Center
Mon 08:32:27 AM 41.1956 -99.1056 256° West 407 468 38,000  Level Denver Center
Mon 08:33:27 AM 41.1667 -99.2508 255° West 408 470 38,000  Level Denver Center
Mon 08:34:28 AM 41.1375 -99.3953 255° West 407 468 38,000  Level Denver Center
Mon 08:35:29 AM 41.1108 -99.5303 255° West 402 463 38,000  Level Denver Center
Mon 08:36:30 AM 41.0808 -99.6808 255° West 401 461 38,000  Level Denver Center
Mon 08:37:30 AM 41.0508 -99.8253 255° West 401 461 38,000  Level Denver Center
Mon 08:38:31 AM 41.0228 -99.9625 255° West 403 464 38,000  Level Denver Center
Mon 08:39:32 AM 40.9906 -100.1217 255° West 402 463 38,000  Level Denver Center
Mon 08:40:32 AM 40.9664 -100.2350 254° West 402 463 38,000  Level Denver Center
Mon 08:41:33 AM 40.9328 -100.3944 254° West 402 463 38,000  Level Denver Center
Mon 08:42:34 AM 40.8997 -100.5528 255° West 402 463 38,000  Level Denver Center
Mon 08:43:35 AM 40.8728 -100.6769 254° West 399 459 38,000  Level Denver Center
Mon 08:44:36 AM 40.8386 -100.8322 254° West 394 453 38,000  Level Denver Center
Mon 08:45:36 AM 40.8106 -100.9664 255° West 398 458 38,000  Level Denver Center
Mon 08:46:37 AM 40.7769 -101.1217 254° West 394 453 38,000  Level Denver Center
Mon 08:47:38 AM 40.7486 -101.2547 254° West 395 455 38,000  Level Denver Center
Mon 08:48:39 AM 40.7186 -101.3892 254° West 399 459 38,000  Level Denver Center
Mon 08:49:39 AM 40.6844 -101.5483 254° West 403 464 38,000  Level Denver Center
Mon 08:50:40 AM 40.6539 -101.6842 254° West 405 466 38,000  Level Denver Center
Mon 08:51:41 AM 40.6228 -101.8211 253° West 407 468 38,000  Level Denver Center
Mon 08:52:42 AM 40.5867 -101.9794 253° West 406 467 38,000  Level Denver Center
Mon 08:53:42 AM 40.5558 -102.1167 254° West 409 471 38,000  Level Denver Center
Mon 08:54:43 AM 40.5247 -102.2544 253° West 410 472 38,000 443 Level Denver Center
Mon 08:55:44 AM 40.4881 -102.4150 253° West 412 474 38,900 836 Climbing Denver Center
Mon 08:56:45 AM 40.4567 -102.5494 253° West 405 466 39,700 545 Climbing Denver Center
Mon 08:57:45 AM 40.4250 -102.6872 253° West 404 465 40,000 149 Climbing Denver Center
Mon 08:58:46 AM 40.3903 -102.8314 252° West 410 472 40,000  Level Denver Center
Mon 08:59:47 AM 40.3558 -102.9747 253° West 409 471 40,000  Level Denver Center
Mon 09:00:48 AM 40.3225 -103.1158 253° West 404 465 40,000  Level Denver Center
Mon 09:01:49 AM 40.2906 -103.2558 253° West 400 460 40,000  Level Denver Center
Mon 09:02:49 AM 40.2564 -103.3933 252° West 397 457 40,000  Level Denver Center
Mon 09:03:50 AM 40.2247 -103.5333 254° West 397 457 40,000  Level Denver Center
Mon 09:04:51 AM 40.1903 -103.6681 252° West 391 450 40,000  Level Denver Center
Mon 09:05:52 AM 40.1567 -103.8094 253° West 411 473 40,000  Level Denver Center
Mon 09:06:52 AM 40.1231 -103.9442 252° West 389 448 40,000  Level Denver Center
Mon 09:07:53 AM 40.0886 -104.0839 252° West 398 458 40,000  Level Denver Center
Mon 09:08:54 AM 40.0550 -104.2197 252° West 389 448 40,000  Level Denver Center
Mon 09:09:55 AM 40.0206 -104.3583 252° West 396 456 40,000  Level Denver Center
Mon 09:10:55 AM 39.9864 -104.4953 252° West 395 455 40,000  Level Denver Center
Mon 09:11:56 AM 39.9517 -104.6319 252° West 397 457 40,000  Level Denver Center
Mon 09:12:57 AM 39.9161 -104.7639 251° West 383 441 40,000  Level Denver Center
Mon 09:14:10 AM 39.8753 -104.9244 252° West 398 458 40,000  Level Denver Center
Mon 09:15:11 AM 39.8350 -105.0831 252° West 393 452 40,000  Level Denver Center
Mon 09:16:11 AM 39.8000 -105.2186 251° West 393 452 40,000  Level Denver Center
Mon 09:17:12 AM 39.7642 -105.3542 251° West 391 450 40,000  Level Denver Center
Mon 09:18:13 AM 39.7275 -105.4931 251° West 404 465 40,000  Level Denver Center
Mon 09:19:14 AM 39.6903 -105.6308 251° West 402 463 40,000  Level Denver Center
Mon 09:20:14 AM 39.6544 -105.7681 251° West 396 456 40,000  Level Denver Center
Mon 09:21:15 AM 39.6208 -105.9011 252° West 387 445 40,000  Level Denver Center
Mon 09:22:16 AM 39.5844 -106.0367 251° West 393 452 40,000  Level Denver Center
Mon 09:23:17 AM 39.5475 -106.1742 251° West 390 449 40,000  Level Denver Center
Mon 09:24:18 AM 39.5169 -106.2886 251° West 389 448 40,000  Level Denver Center
Mon 09:25:18 AM 39.4808 -106.4217 251° West 389 448 40,000  Level Denver Center
Mon 09:26:19 AM 39.4375 -106.5808 251° West 387 445 40,000  Level Denver Center
Mon 09:27:20 AM 39.4028 -106.7039 250° West 382 440 40,000  Level Denver Center
Mon 09:28:21 AM 39.3697 -106.8300 251° West 384 442 40,000  Level Denver Center
Mon 09:29:22 AM 39.3303 -106.9694 250° West 371 427 40,000  Level Denver Center
Mon 09:30:23 AM 39.2967 -107.0922 251° West 375 432 40,000  Level Denver Center
Mon 09:31:24 AM 39.2606 -107.2169 250° West 384 442 40,000  Level Denver Center
Mon 09:32:24 AM 39.2203 -107.3603 250° West 381 438 40,000 -99 Level Denver Center
Mon 09:33:25 AM 39.1850 -107.4844 250° West 384 442 39,800 -590 Descending Denver Center
Mon 09:34:26 AM 39.1506 -107.6039 250° West 375 432 38,800 -885 Descending Denver Center
Mon 09:35:27 AM 39.1144 -107.7322 250° West 348 400 38,000 -393 Descending Denver Center
Mon 09:36:28 AM 39.0808 -107.8450 249° West 349 402 38,000  Level Denver Center
Mon 09:37:29 AM 39.0497 -107.9586 251° West 350 403 38,000  Level Denver Center
Mon 09:38:30 AM 39.0114 -108.0883 249° West 348 400 38,000  Level Denver Center
Mon 09:39:31 AM 38.9781 -108.2022 249° West 355 409 38,000  Level Denver Center
Mon 09:40:32 AM 38.9453 -108.3153 250° West 353 406 38,000  Level Denver Center
Mon 09:41:32 AM 38.9178 -108.4108 250° West 354 407 38,000  Level Denver Center
Mon 09:42:34 AM 38.8728 -108.5636 249° West 357 411 38,000  Level Denver Center
Mon 09:43:35 AM 38.8386 -108.6786 249° West 361 415 38,000  Level Denver Center
Mon 09:44:36 AM 38.7978 -108.8142 249° West 363 418 38,000  Level Denver Center
Mon 09:45:37 AM 38.7642 -108.9294 250° West 361 415 38,000  Level Denver Center
Mon 09:46:38 AM 38.7292 -109.0444 249° West 361 415 38,000  Level Denver Center
Mon 09:47:39 AM 38.6889 -109.1764 249° West 356 410 38,000  Level Denver Center
Mon 09:48:40 AM 38.6553 -109.2906 249° West 358 412 38,000  Level Denver Center
Mon 09:49:41 AM 38.6203 -109.4039 248° West 358 412 38,000  Level Denver Center
Mon 09:50:42 AM 38.5789 -109.5406 249° West 367 422 38,000  Level Denver Center
Mon 09:51:43 AM 38.5417 -109.6581 248° West 372 428 38,000  Level Denver Center
Mon 09:52:44 AM 38.5053 -109.7772 249° West 375 432 38,000  Level Denver Center
Mon 09:53:45 AM 38.4619 -109.9169 248° West 379 436 38,000  Level Denver Center
Mon 09:54:46 AM 38.4250 -110.0331 248° West 372 428 38,000  Level Denver Center
Mon 09:55:47 AM 38.3797 -110.1747 248° West 383 441 38,000  Level Denver Center
Mon 09:56:48 AM 38.3286 -110.2897 240° Southwest 388 447 38,000  Level Denver Center
Mon 09:57:49 AM 38.2772 -110.4061 241° Southwest 392 451 38,000  Level Denver Center
Mon 09:58:50 AM 38.2189 -110.5403 241° Southwest 389 448 38,000  Level Denver Center
Mon 09:59:51 AM 38.1669 -110.6583 241° Southwest 398 458 38,000  Level Denver Center
Mon 10:00:08 AM 38.1522 -110.7000 246° West 397 457 38,000  Level Salt Lake Center
Mon 10:00:52 AM 38.1164 -110.7739 238° Southwest 392 451 38,000  Level Denver Center
Mon 10:01:53 AM 38.0625 -110.8961 241° Southwest 395 455 38,000  Level Denver Center
Mon 10:03:06 AM 38.0086 -111.0161 240° Southwest 393 452 38,000  Level Denver Center
Mon 10:04:08 AM 37.9433 -111.1611 240° Southwest 396 456 38,000  Level Denver Center
Mon 10:05:13 AM 37.8800 -111.3083 241° Southwest 397 457 38,000  Level Salt Lake Center
Mon 10:06:14 AM 37.8256 -111.4289 240° Southwest 395 455 38,000  Level Salt Lake Center
Mon 10:07:15 AM 37.7717 -111.5497 241° Southwest 395 455 38,000 -195 Level Salt Lake Center
Mon 10:08:17 AM 37.7156 -111.6700 239° Southwest 397 457 37,600 -1,415 Descending Salt Lake Center
Mon 10:09:18 AM 37.6614 -111.7886 240° Southwest 392 451 35,100 -2,557 Descending Salt Lake Center
Mon 10:10:19 AM 37.6075 -111.9069 240° Southwest 390 449 32,400 -1,525 Descending Salt Lake Center
Mon 10:11:20 AM 37.5522 -112.0272 240° Southwest 396 456 32,000 -197 Descending Salt Lake Center
Mon 10:12:21 AM 37.4975 -112.1478 240° Southwest 395 455 32,000  Level Salt Lake Center
Mon 10:13:22 AM 37.4294 -112.2925 239° Southwest 399 459 32,000  Level Salt Lake Center
Mon 10:14:23 AM 37.3722 -112.4147 240° Southwest 401 461 32,000  Level Salt Lake Center
Mon 10:14:44 AM 37.3597 -112.4392 237° Southwest 401 461 32,000  Level Los Angeles Center
Mon 10:15:46 AM 37.3022 -112.5619 240° Southwest 404 465 32,000  Level Los Angeles Center
Mon 10:16:26 AM 37.2569 -112.6606 240° Southwest 406 467 32,000  Level Salt Lake Center
Mon 10:17:27 AM 37.1983 -112.7842 239° Southwest 408 470 32,000  Level Salt Lake Center
Mon 10:18:28 AM 37.1394 -112.9089 239° Southwest 412 474 32,000  Level Salt Lake Center
Mon 10:18:51 AM 37.1161 -112.9578 239° Southwest 410 472 32,000  Level Los Angeles Center
Mon 10:19:52 AM 37.0561 -113.0831 239° Southwest 416 479 32,000  Level Los Angeles Center
Mon 10:21:06 AM 36.9856 -113.2336 240° Southwest 417 480 32,000  Level Los Angeles Center
Mon 10:22:08 AM 36.9250 -113.3583 239° Southwest 419 482 32,000 -780 Level Los Angeles Center
Mon 10:23:09 AM 36.8664 -113.4839 240° Southwest 419 482 30,400 -1,902 Descending Los Angeles Center
Mon 10:24:11 AM 36.8086 -113.6006 238° Southwest 401 461 28,100 -2,146 Descending Los Angeles Center
Mon 10:25:12 AM 36.7550 -113.7142 240° Southwest 384 442 26,000 -2,244 Descending Los Angeles Center
Mon 10:26:14 AM 36.6928 -113.8442 239° Southwest 369 425 23,500 -2,177 Descending Los Angeles Center
Mon 10:27:16 AM 36.6422 -113.9492 239° Southwest 358 412 21,500 -1,902 Descending Los Angeles Center
Mon 10:28:17 AM 36.5925 -114.0481 238° Southwest 344 396 19,600 -1,854 Descending Los Angeles Center
Mon 10:29:19 AM 36.5464 -114.1456 240° Southwest 332 382 17,700 -1,887 Descending Los Angeles Center
Mon 10:30:21 AM 36.5019 -114.2461 241° Southwest 321 369 15,700 -1,854 Descending Los Angeles Center
Mon 10:31:22 AM 36.4589 -114.3392 240° Southwest 312 359 13,900 -1,659 Descending Los Angeles Center
Mon 10:32:24 AM 36.4156 -114.4336 240° Southwest 313 360 12,300 -1,261 Descending Los Angeles Center
Mon 10:33:21 AM 36.3508 -114.5000 220° Southwest 302 348 11,400 -1,243 Descending Los Angeles Center
Mon 10:34:15 AM 36.2800 -114.5322 200° South 293 337 10,000 -1,565 Descending Los Angeles Center
Mon 10:35:16 AM 36.2178 -114.5933 218° Southwest 289 333 8,400 -938 Descending Los Angeles Center
Mon 10:36:23 AM 36.1531 -114.6525 216° Southwest 265 305 8,000 -135 Descending Los Angeles Center
Mon 10:37:29 AM 36.0908 -114.7133 218° Southwest 243 280 8,100 -330 Climbing Los Angeles Center
Mon 10:38:12 AM 36.0736 -114.7617 246° West 239 275 7,400 -1,000 Descending Los Angeles Center
Mon 10:38:47 AM 36.0739 -114.8036 270° West 245 282 6,800 -896 Descending Los Angeles Center
Mon 10:39:19 AM 36.0744 -114.8547 271° West 240 276 6,400 -984 Descending Los Angeles Center
Mon 10:39:48 AM 36.0747 -114.8867 271° West 243 280 5,800 -1,279 Descending Los Angeles Center
Mon 10:40:20 AM 36.0733 -114.9375 268° West 237 273 5,100 -1,161 Descending Los Angeles Center
Mon 10:40:50 AM 36.0736 -114.9664 271° West 239 275 4,600 -1,091 Descending Los Angeles Center
Mon 10:41:15 AM 36.0736 -114.9986 270° West 212 244 4,100 -968 Descending Los Angeles Center
Mon 10:41:52 AM 36.0742 -115.0339 271° West 221 254 3,600 -984 Descending Los Angeles Center
Mon 10:42:16 AM 36.0725 -115.0628 266° West 168 193 3,100 -774 Descending Los Angeles Center
Mon 10:42:54 AM 36.0742 -115.0842 276° West 177 204 2,800 -700 Descending Los Angeles Center
Mon 10:43:16 AM 36.0722 -115.1108 265° West 147 169 2,400 -787 Descending Los Angeles Center
Mon 10:43:55 AM 36.0744 -115.1308 278° West 156 180 2,000 -615 Descending Los Angeles Center
Mon 10:45:00 AM 36.0667 -115.1500 219° Southwest  Level FlightAware Approximate
Mon 10:52:00 AM 36.0801 -115.1523 219° Southwest  Level Estimated

Login

Don't have an account? Register now (free) for customized features, flight alerts, and more!